sensor_id;sensor_type;location;lat;lon;timestamp;temperature;humidity
49413;DHT22;35493;50.276;9.372;2022-11-20T00:00:49;3.10;85.60
49413;DHT22;35493;50.276;9.372;2022-11-20T00:03:18;3.10;85.60
49413;DHT22;35493;50.276;9.372;2022-11-20T00:05:45;3.10;85.60
49413;DHT22;35493;50.276;9.372;2022-11-20T00:08:12;3.10;85.50
49413;DHT22;35493;50.276;9.372;2022-11-20T00:10:40;3.10;85.60
49413;DHT22;35493;50.276;9.372;2022-11-20T00:13:07;3.10;85.60
49413;DHT22;35493;50.276;9.372;2022-11-20T00:15:36;3.10;85.50
49413;DHT22;35493;50.276;9.372;2022-11-20T00:18:03;3.10;85.60
49413;DHT22;35493;50.276;9.372;2022-11-20T00:20:30;3.10;85.60
49413;DHT22;35493;50.276;9.372;2022-11-20T00:22:56;3.10;85.80
49413;DHT22;35493;50.276;9.372;2022-11-20T00:25:23;3.20;85.60
49413;DHT22;35493;50.276;9.372;2022-11-20T00:27:50;3.10;85.60
49413;DHT22;35493;50.276;9.372;2022-11-20T00:30:18;3.10;85.70
49413;DHT22;35493;50.276;9.372;2022-11-20T00:32:46;3.10;85.50
49413;DHT22;35493;50.276;9.372;2022-11-20T00:35:13;3.00;85.60
49413;DHT22;35493;50.276;9.372;2022-11-20T00:37:40;3.00;85.60
49413;DHT22;35493;50.276;9.372;2022-11-20T00:40:10;3.00;85.60
49413;DHT22;35493;50.276;9.372;2022-11-20T00:42:37;3.00;85.60
49413;DHT22;35493;50.276;9.372;2022-11-20T00:45:05;3.00;85.60
49413;DHT22;35493;50.276;9.372;2022-11-20T00:47:32;3.00;85.60
49413;DHT22;35493;50.276;9.372;2022-11-20T00:50:01;2.90;85.60
49413;DHT22;35493;50.276;9.372;2022-11-20T00:52:27;2.90;85.80
49413;DHT22;35493;50.276;9.372;2022-11-20T00:54:54;2.90;85.70
49413;DHT22;35493;50.276;9.372;2022-11-20T00:57:21;2.80;85.80
49413;DHT22;35493;50.276;9.372;2022-11-20T00:59:48;2.80;85.80
49413;DHT22;35493;50.276;9.372;2022-11-20T01:02:15;2.80;85.80
49413;DHT22;35493;50.276;9.372;2022-11-20T01:04:42;2.80;85.90
49413;DHT22;35493;50.276;9.372;2022-11-20T01:07:11;2.80;86.10
49413;DHT22;35493;50.276;9.372;2022-11-20T01:09:38;2.80;86.30
49413;DHT22;35493;50.276;9.372;2022-11-20T01:12:07;2.70;86.20
49413;DHT22;35493;50.276;9.372;2022-11-20T01:14:34;2.80;86.40
49413;DHT22;35493;50.276;9.372;2022-11-20T01:17:01;2.80;86.30
49413;DHT22;35493;50.276;9.372;2022-11-20T01:19:31;2.80;86.30
49413;DHT22;35493;50.276;9.372;2022-11-20T01:21:58;2.80;86.40
49413;DHT22;35493;50.276;9.372;2022-11-20T01:24:26;2.90;86.20
49413;DHT22;35493;50.276;9.372;2022-11-20T01:26:53;2.90;86.20
49413;DHT22;35493;50.276;9.372;2022-11-20T01:29:22;2.90;86.10
49413;DHT22;35493;50.276;9.372;2022-11-20T01:31:50;2.90;86.20
49413;DHT22;35493;50.276;9.372;2022-11-20T01:34:19;2.90;86.20
49413;DHT22;35493;50.276;9.372;2022-11-20T01:36:48;2.90;86.10
49413;DHT22;35493;50.276;9.372;2022-11-20T01:39:17;2.80;86.10
49413;DHT22;35493;50.276;9.372;2022-11-20T01:41:46;2.80;86.20
49413;DHT22;35493;50.276;9.372;2022-11-20T01:44:50;2.90;86.20
49413;DHT22;35493;50.276;9.372;2022-11-20T01:47:24;2.80;86.20
49413;DHT22;35493;50.276;9.372;2022-11-20T01:49:55;2.90;86.20
49413;DHT22;35493;50.276;9.372;2022-11-20T01:52:22;2.80;86.30
49413;DHT22;35493;50.276;9.372;2022-11-20T01:54:53;2.90;86.40
49413;DHT22;35493;50.276;9.372;2022-11-20T01:57:25;2.90;86.40
49413;DHT22;35493;50.276;9.372;2022-11-20T01:59:59;2.90;86.10
49413;DHT22;35493;50.276;9.372;2022-11-20T02:02:39;2.80;86.10
49413;DHT22;35493;50.276;9.372;2022-11-20T02:05:17;2.80;86.20
49413;DHT22;35493;50.276;9.372;2022-11-20T02:07:46;2.90;86.20
49413;DHT22;35493;50.276;9.372;2022-11-20T02:10:14;2.90;86.10
49413;DHT22;35493;50.276;9.372;2022-11-20T02:12:42;2.80;86.20
49413;DHT22;35493;50.276;9.372;2022-11-20T02:15:26;2.80;86.20
49413;DHT22;35493;50.276;9.372;2022-11-20T02:17:54;2.90;86.20
49413;DHT22;35493;50.276;9.372;2022-11-20T02:20:22;2.90;86.20
49413;DHT22;35493;50.276;9.372;2022-11-20T02:22:53;2.90;86.10
49413;DHT22;35493;50.276;9.372;2022-11-20T02:25:24;2.90;85.90
49413;DHT22;35493;50.276;9.372;2022-11-20T02:27:53;3.00;85.80
49413;DHT22;35493;50.276;9.372;2022-11-20T02:30:20;3.00;85.60
49413;DHT22;35493;50.276;9.372;2022-11-20T02:32:50;3.00;85.80
49413;DHT22;35493;50.276;9.372;2022-11-20T02:35:44;2.90;85.80
49413;DHT22;35493;50.276;9.372;2022-11-20T02:38:11;2.90;85.80
49413;DHT22;35493;50.276;9.372;2022-11-20T02:40:41;3.00;85.70
49413;DHT22;35493;50.276;9.372;2022-11-20T02:43:08;3.10;85.60
49413;DHT22;35493;50.276;9.372;2022-11-20T02:45:35;3.00;85.50
49413;DHT22;35493;50.276;9.372;2022-11-20T02:48:06;3.00;85.60
49413;DHT22;35493;50.276;9.372;2022-11-20T02:50:33;3.00;85.70
49413;DHT22;35493;50.276;9.372;2022-11-20T02:53:00;3.00;85.70
49413;DHT22;35493;50.276;9.372;2022-11-20T02:55:27;3.00;85.80
49413;DHT22;35493;50.276;9.372;2022-11-20T02:57:55;2.90;85.80
49413;DHT22;35493;50.276;9.372;2022-11-20T03:00:22;2.90;85.90
49413;DHT22;35493;50.276;9.372;2022-11-20T03:02:49;2.90;86.20
49413;DHT22;35493;50.276;9.372;2022-11-20T03:05:18;2.90;86.30
49413;DHT22;35493;50.276;9.372;2022-11-20T03:07:50;2.90;86.00
49413;DHT22;35493;50.276;9.372;2022-11-20T03:10:17;3.00;85.90
49413;DHT22;35493;50.276;9.372;2022-11-20T03:12:44;3.00;86.00
49413;DHT22;35493;50.276;9.372;2022-11-20T03:15:13;3.00;85.70
49413;DHT22;35493;50.276;9.372;2022-11-20T03:17:40;3.00;85.70
49413;DHT22;35493;50.276;9.372;2022-11-20T03:20:08;3.00;86.00
49413;DHT22;35493;50.276;9.372;2022-11-20T03:22:35;3.00;86.10
49413;DHT22;35493;50.276;9.372;2022-11-20T03:25:02;3.00;86.20
49413;DHT22;35493;50.276;9.372;2022-11-20T03:27:32;2.90;86.10
49413;DHT22;35493;50.276;9.372;2022-11-20T03:29:59;2.90;86.30
49413;DHT22;35493;50.276;9.372;2022-11-20T03:32:30;3.00;86.30
49413;DHT22;35493;50.276;9.372;2022-11-20T03:34:57;3.00;86.30
49413;DHT22;35493;50.276;9.372;2022-11-20T03:37:24;3.00;86.30
49413;DHT22;35493;50.276;9.372;2022-11-20T03:39:51;3.00;86.20
49413;DHT22;35493;50.276;9.372;2022-11-20T03:42:20;3.00;86.00
49413;DHT22;35493;50.276;9.372;2022-11-20T03:45:05;3.00;85.90
49413;DHT22;35493;50.276;9.372;2022-11-20T03:47:34;3.00;86.00
49413;DHT22;35493;50.276;9.372;2022-11-20T03:50:02;3.00;86.00
49413;DHT22;35493;50.276;9.372;2022-11-20T03:52:29;3.00;85.80
49413;DHT22;35493;50.276;9.372;2022-11-20T03:54:56;3.00;85.70
49413;DHT22;35493;50.276;9.372;2022-11-20T03:57:23;3.00;85.80
49413;DHT22;35493;50.276;9.372;2022-11-20T03:59:53;3.00;85.80
49413;DHT22;35493;50.276;9.372;2022-11-20T04:02:22;3.00;85.80
49413;DHT22;35493;50.276;9.372;2022-11-20T04:04:50;3.00;85.80
49413;DHT22;35493;50.276;9.372;2022-11-20T04:07:20;3.00;85.90
49413;DHT22;35493;50.276;9.372;2022-11-20T04:09:47;3.00;86.00
49413;DHT22;35493;50.276;9.372;2022-11-20T04:12:13;3.00;85.90
49413;DHT22;35493;50.276;9.372;2022-11-20T04:14:40;3.00;86.00
49413;DHT22;35493;50.276;9.372;2022-11-20T04:17:07;3.10;85.80
49413;DHT22;35493;50.276;9.372;2022-11-20T04:19:34;3.10;85.80
49413;DHT22;35493;50.276;9.372;2022-11-20T04:22:03;3.10;85.80
49413;DHT22;35493;50.276;9.372;2022-11-20T04:24:30;3.10;85.80
49413;DHT22;35493;50.276;9.372;2022-11-20T04:26:56;3.10;86.00
49413;DHT22;35493;50.276;9.372;2022-11-20T04:29:23;3.00;86.10
49413;DHT22;35493;50.276;9.372;2022-11-20T04:31:50;3.10;86.10
49413;DHT22;35493;50.276;9.372;2022-11-20T04:34:17;3.10;86.20
49413;DHT22;35493;50.276;9.372;2022-11-20T04:36:44;3.00;86.30
49413;DHT22;35493;50.276;9.372;2022-11-20T04:39:14;3.00;86.40
49413;DHT22;35493;50.276;9.372;2022-11-20T04:41:44;3.10;86.30
49413;DHT22;35493;50.276;9.372;2022-11-20T04:44:11;3.00;86.10
49413;DHT22;35493;50.276;9.372;2022-11-20T04:46:39;3.10;86.20
49413;DHT22;35493;50.276;9.372;2022-11-20T04:49:07;3.10;86.30
49413;DHT22;35493;50.276;9.372;2022-11-20T04:51:34;3.00;86.30
49413;DHT22;35493;50.276;9.372;2022-11-20T04:54:01;3.00;86.50
49413;DHT22;35493;50.276;9.372;2022-11-20T04:56:31;3.10;86.30
49413;DHT22;35493;50.276;9.372;2022-11-20T04:59:00;3.10;86.20
49413;DHT22;35493;50.276;9.372;2022-11-20T05:01:34;3.10;86.10
49413;DHT22;35493;50.276;9.372;2022-11-20T05:04:04;3.10;86.20
49413;DHT22;35493;50.276;9.372;2022-11-20T05:06:32;3.10;86.40
49413;DHT22;35493;50.276;9.372;2022-11-20T05:08:59;3.10;86.40
49413;DHT22;35493;50.276;9.372;2022-11-20T05:11:26;3.10;86.40
49413;DHT22;35493;50.276;9.372;2022-11-20T05:13:58;3.10;86.40
49413;DHT22;35493;50.276;9.372;2022-11-20T05:16:25;3.10;86.30
49413;DHT22;35493;50.276;9.372;2022-11-20T05:18:54;3.10;86.50
49413;DHT22;35493;50.276;9.372;2022-11-20T05:21:21;3.10;86.60
49413;DHT22;35493;50.276;9.372;2022-11-20T05:23:48;3.10;86.50
49413;DHT22;35493;50.276;9.372;2022-11-20T05:26:17;3.10;86.40
49413;DHT22;35493;50.276;9.372;2022-11-20T05:28:44;3.10;86.40
49413;DHT22;35493;50.276;9.372;2022-11-20T05:31:14;3.10;86.30
49413;DHT22;35493;50.276;9.372;2022-11-20T05:33:43;3.10;86.20
49413;DHT22;35493;50.276;9.372;2022-11-20T05:36:11;3.10;86.10
49413;DHT22;35493;50.276;9.372;2022-11-20T05:38:39;3.10;86.30
49413;DHT22;35493;50.276;9.372;2022-11-20T05:41:08;3.10;86.30
49413;DHT22;35493;50.276;9.372;2022-11-20T05:43:39;3.10;86.50
49413;DHT22;35493;50.276;9.372;2022-11-20T05:46:08;3.20;86.30
49413;DHT22;35493;50.276;9.372;2022-11-20T05:48:37;3.20;86.30
49413;DHT22;35493;50.276;9.372;2022-11-20T05:51:06;3.10;86.20
49413;DHT22;35493;50.276;9.372;2022-11-20T05:53:34;3.10;86.30
49413;DHT22;35493;50.276;9.372;2022-11-20T05:56:03;3.20;86.20
49413;DHT22;35493;50.276;9.372;2022-11-20T05:58:31;3.20;86.10
49413;DHT22;35493;50.276;9.372;2022-11-20T06:01:05;3.20;86.20
49413;DHT22;35493;50.276;9.372;2022-11-20T06:03:32;3.20;86.10
49413;DHT22;35493;50.276;9.372;2022-11-20T06:06:01;3.20;86.00
49413;DHT22;35493;50.276;9.372;2022-11-20T06:08:34;3.20;86.00
49413;DHT22;35493;50.276;9.372;2022-11-20T06:11:04;3.20;85.90
49413;DHT22;35493;50.276;9.372;2022-11-20T06:13:31;3.10;86.00
49413;DHT22;35493;50.276;9.372;2022-11-20T06:15:58;3.10;86.10
49413;DHT22;35493;50.276;9.372;2022-11-20T06:18:29;3.10;86.10
49413;DHT22;35493;50.276;9.372;2022-11-20T06:21:02;3.10;86.00
49413;DHT22;35493;50.276;9.372;2022-11-20T06:23:30;3.10;86.10
49413;DHT22;35493;50.276;9.372;2022-11-20T06:25:58;3.20;86.00
49413;DHT22;35493;50.276;9.372;2022-11-20T06:28:27;3.20;86.10
49413;DHT22;35493;50.276;9.372;2022-11-20T06:30:55;3.20;86.00
49413;DHT22;35493;50.276;9.372;2022-11-20T06:33:22;3.20;86.10
49413;DHT22;35493;50.276;9.372;2022-11-20T06:35:52;3.20;86.20
49413;DHT22;35493;50.276;9.372;2022-11-20T06:38:24;3.20;86.20
49413;DHT22;35493;50.276;9.372;2022-11-20T06:40:51;3.20;86.10
49413;DHT22;35493;50.276;9.372;2022-11-20T06:43:18;3.20;86.10
49413;DHT22;35493;50.276;9.372;2022-11-20T06:45:44;3.20;86.20
49413;DHT22;35493;50.276;9.372;2022-11-20T06:48:11;3.20;86.20
49413;DHT22;35493;50.276;9.372;2022-11-20T06:50:38;3.20;86.20
49413;DHT22;35493;50.276;9.372;2022-11-20T06:53:05;3.30;86.10
49413;DHT22;35493;50.276;9.372;2022-11-20T06:55:33;3.30;86.10
49413;DHT22;35493;50.276;9.372;2022-11-20T06:58:00;3.20;85.90
49413;DHT22;35493;50.276;9.372;2022-11-20T07:00:27;3.20;86.00
49413;DHT22;35493;50.276;9.372;2022-11-20T07:02:54;3.30;86.10
49413;DHT22;35493;50.276;9.372;2022-11-20T07:05:21;3.20;85.90
49413;DHT22;35493;50.276;9.372;2022-11-20T07:07:48;3.30;85.90
49413;DHT22;35493;50.276;9.372;2022-11-20T07:10:16;3.30;85.90
49413;DHT22;35493;50.276;9.372;2022-11-20T07:12:49;3.20;85.90
49413;DHT22;35493;50.276;9.372;2022-11-20T07:15:16;3.30;86.00
49413;DHT22;35493;50.276;9.372;2022-11-20T07:17:43;3.30;86.10
49413;DHT22;35493;50.276;9.372;2022-11-20T07:20:10;3.20;86.20
49413;DHT22;35493;50.276;9.372;2022-11-20T07:22:37;3.30;86.30
49413;DHT22;35493;50.276;9.372;2022-11-20T07:25:05;3.30;86.20
49413;DHT22;35493;50.276;9.372;2022-11-20T07:27:33;3.30;86.20
49413;DHT22;35493;50.276;9.372;2022-11-20T07:30:02;3.20;86.30
49413;DHT22;35493;50.276;9.372;2022-11-20T07:32:29;3.30;86.20
49413;DHT22;35493;50.276;9.372;2022-11-20T07:34:57;3.40;86.30
49413;DHT22;35493;50.276;9.372;2022-11-20T07:37:24;3.40;86.30
49413;DHT22;35493;50.276;9.372;2022-11-20T07:39:51;3.40;86.60
49413;DHT22;35493;50.276;9.372;2022-11-20T07:42:18;3.40;86.70
49413;DHT22;35493;50.276;9.372;2022-11-20T07:44:45;3.40;86.70
49413;DHT22;35493;50.276;9.372;2022-11-20T07:47:13;3.40;86.70
49413;DHT22;35493;50.276;9.372;2022-11-20T07:49:40;3.40;86.80
49413;DHT22;35493;50.276;9.372;2022-11-20T07:52:07;3.40;86.90
49413;DHT22;35493;50.276;9.372;2022-11-20T07:54:34;3.40;87.00
49413;DHT22;35493;50.276;9.372;2022-11-20T07:57:01;3.30;87.00
49413;DHT22;35493;50.276;9.372;2022-11-20T07:59:30;3.30;87.20
49413;DHT22;35493;50.276;9.372;2022-11-20T08:01:57;3.30;87.30
49413;DHT22;35493;50.276;9.372;2022-11-20T08:04:25;3.30;87.30
49413;DHT22;35493;50.276;9.372;2022-11-20T08:06:52;3.30;87.30
49413;DHT22;35493;50.276;9.372;2022-11-20T08:09:19;3.30;87.30
49413;DHT22;35493;50.276;9.372;2022-11-20T08:11:46;3.40;87.20
49413;DHT22;35493;50.276;9.372;2022-11-20T08:14:31;3.40;87.10
49413;DHT22;35493;50.276;9.372;2022-11-20T08:17:01;3.40;87.10
49413;DHT22;35493;50.276;9.372;2022-11-20T08:19:29;3.50;87.20
49413;DHT22;35493;50.276;9.372;2022-11-20T08:21:56;3.50;87.20
49413;DHT22;35493;50.276;9.372;2022-11-20T08:24:23;3.50;87.20
49413;DHT22;35493;50.276;9.372;2022-11-20T08:26:50;3.50;87.10
49413;DHT22;35493;50.276;9.372;2022-11-20T08:29:20;3.50;87.10
49413;DHT22;35493;50.276;9.372;2022-11-20T08:31:47;3.50;87.30
49413;DHT22;35493;50.276;9.372;2022-11-20T08:34:15;3.50;87.40
49413;DHT22;35493;50.276;9.372;2022-11-20T08:36:43;3.60;87.40
49413;DHT22;35493;50.276;9.372;2022-11-20T08:39:11;3.60;87.40
49413;DHT22;35493;50.276;9.372;2022-11-20T08:41:39;3.50;87.30
49413;DHT22;35493;50.276;9.372;2022-11-20T08:44:07;3.60;87.40
49413;DHT22;35493;50.276;9.372;2022-11-20T08:46:36;3.60;87.40
49413;DHT22;35493;50.276;9.372;2022-11-20T08:49:03;3.60;87.40
49413;DHT22;35493;50.276;9.372;2022-11-20T08:51:30;3.50;87.70
49413;DHT22;35493;50.276;9.372;2022-11-20T08:54:01;3.50;87.60
49413;DHT22;35493;50.276;9.372;2022-11-20T08:56:28;3.60;87.60
49413;DHT22;35493;50.276;9.372;2022-11-20T08:58:55;3.50;87.80
49413;DHT22;35493;50.276;9.372;2022-11-20T09:01:24;3.60;87.70
49413;DHT22;35493;50.276;9.372;2022-11-20T09:03:52;3.50;87.80
49413;DHT22;35493;50.276;9.372;2022-11-20T09:06:19;3.60;88.00
49413;DHT22;35493;50.276;9.372;2022-11-20T09:08:46;3.60;87.90
49413;DHT22;35493;50.276;9.372;2022-11-20T09:11:14;3.50;87.90
49413;DHT22;35493;50.276;9.372;2022-11-20T09:13:41;3.50;88.00
49413;DHT22;35493;50.276;9.372;2022-11-20T09:16:08;3.50;88.10
49413;DHT22;35493;50.276;9.372;2022-11-20T09:18:36;3.50;88.10
49413;DHT22;35493;50.276;9.372;2022-11-20T09:21:05;3.60;88.10
49413;DHT22;35493;50.276;9.372;2022-11-20T09:23:35;3.60;88.10
49413;DHT22;35493;50.276;9.372;2022-11-20T09:26:03;3.60;88.10
49413;DHT22;35493;50.276;9.372;2022-11-20T09:28:32;3.70;88.10
49413;DHT22;35493;50.276;9.372;2022-11-20T09:30:59;3.70;88.10
49413;DHT22;35493;50.276;9.372;2022-11-20T09:33:27;3.70;88.00
49413;DHT22;35493;50.276;9.372;2022-11-20T09:35:54;3.70;88.00
49413;DHT22;35493;50.276;9.372;2022-11-20T09:38:21;3.70;88.00
49413;DHT22;35493;50.276;9.372;2022-11-20T09:40:56;3.80;87.60
49413;DHT22;35493;50.276;9.372;2022-11-20T09:43:32;3.80;87.80
49413;DHT22;35493;50.276;9.372;2022-11-20T09:46:09;3.70;88.20
49413;DHT22;35493;50.276;9.372;2022-11-20T09:48:53;3.80;88.00
49413;DHT22;35493;50.276;9.372;2022-11-20T09:51:31;3.80;88.10
49413;DHT22;35493;50.276;9.372;2022-11-20T09:54:13;3.80;88.00
49413;DHT22;35493;50.276;9.372;2022-11-20T09:56:43;3.80;87.90
49413;DHT22;35493;50.276;9.372;2022-11-20T09:59:23;3.90;88.10
49413;DHT22;35493;50.276;9.372;2022-11-20T10:01:54;3.90;87.70
49413;DHT22;35493;50.276;9.372;2022-11-20T10:04:22;3.90;88.00
49413;DHT22;35493;50.276;9.372;2022-11-20T10:06:55;3.90;88.20
49413;DHT22;35493;50.276;9.372;2022-11-20T10:09:30;4.00;87.80
49413;DHT22;35493;50.276;9.372;2022-11-20T10:12:06;4.00;88.10
49413;DHT22;35493;50.276;9.372;2022-11-20T10:14:50;4.00;88.30
49413;DHT22;35493;50.276;9.372;2022-11-20T10:17:29;4.00;88.20
49413;DHT22;35493;50.276;9.372;2022-11-20T10:20:14;4.00;87.70
49413;DHT22;35493;50.276;9.372;2022-11-20T10:22:54;4.00;88.00
49413;DHT22;35493;50.276;9.372;2022-11-20T10:25:38;4.10;88.10
49413;DHT22;35493;50.276;9.372;2022-11-20T10:28:15;4.10;88.20
49413;DHT22;35493;50.276;9.372;2022-11-20T10:30:45;4.20;88.10
49413;DHT22;35493;50.276;9.372;2022-11-20T10:33:17;4.20;87.70
49413;DHT22;35493;50.276;9.372;2022-11-20T10:35:50;4.20;88.10
49413;DHT22;35493;50.276;9.372;2022-11-20T10:38:21;4.20;87.70
49413;DHT22;35493;50.276;9.372;2022-11-20T10:40:53;4.20;88.20
49413;DHT22;35493;50.276;9.372;2022-11-20T10:43:42;4.30;88.30
49413;DHT22;35493;50.276;9.372;2022-11-20T10:46:16;4.30;87.70
49413;DHT22;35493;50.276;9.372;2022-11-20T10:48:44;4.40;88.10
49413;DHT22;35493;50.276;9.372;2022-11-20T10:51:18;4.40;88.10
49413;DHT22;35493;50.276;9.372;2022-11-20T10:53:56;4.40;87.50
49413;DHT22;35493;50.276;9.372;2022-11-20T10:56:29;4.40;88.40
49413;DHT22;35493;50.276;9.372;2022-11-20T10:59:11;4.40;87.70
49413;DHT22;35493;50.276;9.372;2022-11-20T11:01:48;4.40;88.10
49413;DHT22;35493;50.276;9.372;2022-11-20T11:04:30;4.40;87.60
49413;DHT22;35493;50.276;9.372;2022-11-20T11:07:07;4.40;88.60
49413;DHT22;35493;50.276;9.372;2022-11-20T11:09:39;4.50;88.50
49413;DHT22;35493;50.276;9.372;2022-11-20T11:12:09;4.50;88.40
49413;DHT22;35493;50.276;9.372;2022-11-20T11:14:46;4.50;88.10
49413;DHT22;35493;50.276;9.372;2022-11-20T11:17:25;4.40;88.40
49413;DHT22;35493;50.276;9.372;2022-11-20T11:20:01;4.50;88.40
49413;DHT22;35493;50.276;9.372;2022-11-20T11:22:29;4.40;88.20
49413;DHT22;35493;50.276;9.372;2022-11-20T11:24:56;4.50;87.90
49413;DHT22;35493;50.276;9.372;2022-11-20T11:27:23;4.50;88.30
49413;DHT22;35493;50.276;9.372;2022-11-20T11:30:02;4.60;87.90
49413;DHT22;35493;50.276;9.372;2022-11-20T11:32:30;4.60;88.10
49413;DHT22;35493;50.276;9.372;2022-11-20T11:35:02;4.70;88.00
49413;DHT22;35493;50.276;9.372;2022-11-20T11:37:34;4.70;87.90
49413;DHT22;35493;50.276;9.372;2022-11-20T11:40:03;4.70;87.80
49413;DHT22;35493;50.276;9.372;2022-11-20T11:42:32;4.70;87.80
49413;DHT22;35493;50.276;9.372;2022-11-20T11:45:00;4.70;87.70
49413;DHT22;35493;50.276;9.372;2022-11-20T11:47:37;4.70;87.50
49413;DHT22;35493;50.276;9.372;2022-11-20T11:50:16;4.70;87.50
49413;DHT22;35493;50.276;9.372;2022-11-20T11:52:46;4.70;87.60
49413;DHT22;35493;50.276;9.372;2022-11-20T11:55:19;4.60;87.60
49413;DHT22;35493;50.276;9.372;2022-11-20T11:57:54;4.60;87.70
49413;DHT22;35493;50.276;9.372;2022-11-20T12:00:23;4.60;87.70
49413;DHT22;35493;50.276;9.372;2022-11-20T12:03:00;4.70;87.60
49413;DHT22;35493;50.276;9.372;2022-11-20T12:05:35;4.70;87.40
49413;DHT22;35493;50.276;9.372;2022-11-20T12:08:06;4.70;87.40
49413;DHT22;35493;50.276;9.372;2022-11-20T12:10:43;4.70;87.20
49413;DHT22;35493;50.276;9.372;2022-11-20T12:13:20;4.70;87.20
49413;DHT22;35493;50.276;9.372;2022-11-20T12:15:48;4.70;87.20
49413;DHT22;35493;50.276;9.372;2022-11-20T12:18:19;4.70;87.30
49413;DHT22;35493;50.276;9.372;2022-11-20T12:20:48;4.70;87.20
49413;DHT22;35493;50.276;9.372;2022-11-20T12:23:21;4.70;87.20
49413;DHT22;35493;50.276;9.372;2022-11-20T12:25:55;4.70;87.10
49413;DHT22;35493;50.276;9.372;2022-11-20T12:28:32;4.70;87.10
49413;DHT22;35493;50.276;9.372;2022-11-20T12:34:12;4.80;87.00
49413;DHT22;35493;50.276;9.372;2022-11-20T12:36:48;4.80;87.00
49413;DHT22;35493;50.276;9.372;2022-11-20T12:39:35;4.90;86.90
49413;DHT22;35493;50.276;9.372;2022-11-20T12:42:40;4.90;86.90
49413;DHT22;35493;50.276;9.372;2022-11-20T12:45:43;4.90;86.80
49413;DHT22;35493;50.276;9.372;2022-11-20T12:48:29;4.90;86.70
49413;DHT22;35493;50.276;9.372;2022-11-20T12:51:19;5.00;86.40
49413;DHT22;35493;50.276;9.372;2022-11-20T12:53:56;4.90;86.40
49413;DHT22;35493;50.276;9.372;2022-11-20T12:56:35;5.00;86.40
49413;DHT22;35493;50.276;9.372;2022-11-20T12:59:19;4.90;86.40
49413;DHT22;35493;50.276;9.372;2022-11-20T13:01:53;5.00;86.40
49413;DHT22;35493;50.276;9.372;2022-11-20T13:04:44;5.00;86.50
49413;DHT22;35493;50.276;9.372;2022-11-20T13:07:18;5.00;86.50
49413;DHT22;35493;50.276;9.372;2022-11-20T13:09:48;5.00;86.40
49413;DHT22;35493;50.276;9.372;2022-11-20T13:12:22;5.00;86.40
49413;DHT22;35493;50.276;9.372;2022-11-20T13:14:53;5.00;86.50
49413;DHT22;35493;50.276;9.372;2022-11-20T13:17:28;5.00;86.30
49413;DHT22;35493;50.276;9.372;2022-11-20T13:19:57;5.10;86.20
49413;DHT22;35493;50.276;9.372;2022-11-20T13:22:27;5.00;86.20
49413;DHT22;35493;50.276;9.372;2022-11-20T13:24:54;5.00;86.30
49413;DHT22;35493;50.276;9.372;2022-11-20T13:27:22;5.00;86.30
49413;DHT22;35493;50.276;9.372;2022-11-20T13:30:02;5.00;86.30
49413;DHT22;35493;50.276;9.372;2022-11-20T13:32:29;5.00;86.40
49413;DHT22;35493;50.276;9.372;2022-11-20T13:34:59;5.00;86.30
49413;DHT22;35493;50.276;9.372;2022-11-20T13:37:31;5.00;86.30
49413;DHT22;35493;50.276;9.372;2022-11-20T13:40:11;4.90;86.50
49413;DHT22;35493;50.276;9.372;2022-11-20T13:42:40;5.00;86.40
49413;DHT22;35493;50.276;9.372;2022-11-20T13:45:21;4.90;86.30
49413;DHT22;35493;50.276;9.372;2022-11-20T13:47:50;4.90;86.40
49413;DHT22;35493;50.276;9.372;2022-11-20T13:50:19;4.90;86.50
49413;DHT22;35493;50.276;9.372;2022-11-20T13:52:55;4.90;86.60
49413;DHT22;35493;50.276;9.372;2022-11-20T13:55:33;4.80;86.60
49413;DHT22;35493;50.276;9.372;2022-11-20T13:58:07;4.80;86.70
49413;DHT22;35493;50.276;9.372;2022-11-20T14:00:44;4.80;86.70
49413;DHT22;35493;50.276;9.372;2022-11-20T14:03:18;4.90;86.90
49413;DHT22;35493;50.276;9.372;2022-11-20T14:05:50;4.80;87.10
49413;DHT22;35493;50.276;9.372;2022-11-20T14:08:26;4.90;87.20
49413;DHT22;35493;50.276;9.372;2022-11-20T14:11:05;4.90;86.90
49413;DHT22;35493;50.276;9.372;2022-11-20T14:13:32;4.80;87.00
49413;DHT22;35493;50.276;9.372;2022-11-20T14:16:03;4.80;87.20
49413;DHT22;35493;50.276;9.372;2022-11-20T14:18:30;4.90;87.30
49413;DHT22;35493;50.276;9.372;2022-11-20T14:21:00;4.90;87.30
49413;DHT22;35493;50.276;9.372;2022-11-20T14:23:29;4.80;87.30
49413;DHT22;35493;50.276;9.372;2022-11-20T14:25:56;4.80;87.30
49413;DHT22;35493;50.276;9.372;2022-11-20T14:28:26;4.90;87.50
49413;DHT22;35493;50.276;9.372;2022-11-20T14:30:54;4.90;87.40
49413;DHT22;35493;50.276;9.372;2022-11-20T14:33:22;4.80;87.50
49413;DHT22;35493;50.276;9.372;2022-11-20T14:35:52;4.80;87.70
49413;DHT22;35493;50.276;9.372;2022-11-20T14:38:23;4.80;87.70
49413;DHT22;35493;50.276;9.372;2022-11-20T14:40:52;4.80;87.80
49413;DHT22;35493;50.276;9.372;2022-11-20T14:43:22;4.80;88.00
49413;DHT22;35493;50.276;9.372;2022-11-20T14:45:55;4.80;88.00
49413;DHT22;35493;50.276;9.372;2022-11-20T14:48:27;4.80;88.00
49413;DHT22;35493;50.276;9.372;2022-11-20T14:50:56;4.80;88.00
49413;DHT22;35493;50.276;9.372;2022-11-20T14:53:24;4.80;87.90
49413;DHT22;35493;50.276;9.372;2022-11-20T14:55:57;4.80;88.20
49413;DHT22;35493;50.276;9.372;2022-11-20T14:58:26;4.80;88.40
49413;DHT22;35493;50.276;9.372;2022-11-20T15:00:55;4.70;88.40
49413;DHT22;35493;50.276;9.372;2022-11-20T15:03:22;4.70;88.40
49413;DHT22;35493;50.276;9.372;2022-11-20T15:05:50;4.70;88.60
49413;DHT22;35493;50.276;9.372;2022-11-20T15:08:18;4.70;88.40
49413;DHT22;35493;50.276;9.372;2022-11-20T15:10:46;4.80;88.50
49413;DHT22;35493;50.276;9.372;2022-11-20T15:13:19;4.70;88.40
49413;DHT22;35493;50.276;9.372;2022-11-20T15:15:52;4.70;88.40
49413;DHT22;35493;50.276;9.372;2022-11-20T15:18:22;4.70;88.50
49413;DHT22;35493;50.276;9.372;2022-11-20T15:20:50;4.70;88.60
49413;DHT22;35493;50.276;9.372;2022-11-20T15:23:18;4.70;88.50
49413;DHT22;35493;50.276;9.372;2022-11-20T15:25:46;4.70;88.40
49413;DHT22;35493;50.276;9.372;2022-11-20T15:28:19;4.70;88.50
49413;DHT22;35493;50.276;9.372;2022-11-20T15:30:48;4.60;88.60
49413;DHT22;35493;50.276;9.372;2022-11-20T15:33:16;4.60;88.70
49413;DHT22;35493;50.276;9.372;2022-11-20T15:35:43;4.60;88.70
49413;DHT22;35493;50.276;9.372;2022-11-20T15:38:10;4.60;88.70
49413;DHT22;35493;50.276;9.372;2022-11-20T15:40:37;4.60;88.60
49413;DHT22;35493;50.276;9.372;2022-11-20T15:43:06;4.60;88.60
49413;DHT22;35493;50.276;9.372;2022-11-20T15:45:38;4.60;88.70
49413;DHT22;35493;50.276;9.372;2022-11-20T15:48:09;4.60;88.80
49413;DHT22;35493;50.276;9.372;2022-11-20T15:50:41;4.60;88.80
49413;DHT22;35493;50.276;9.372;2022-11-20T15:53:10;4.70;88.80
49413;DHT22;35493;50.276;9.372;2022-11-20T15:55:37;4.70;88.80
49413;DHT22;35493;50.276;9.372;2022-11-20T15:58:08;4.60;88.80
49413;DHT22;35493;50.276;9.372;2022-11-20T16:00:36;4.70;88.70
49413;DHT22;35493;50.276;9.372;2022-11-20T16:03:03;4.60;88.80
49413;DHT22;35493;50.276;9.372;2022-11-20T16:05:31;4.70;88.80
49413;DHT22;35493;50.276;9.372;2022-11-20T16:07:58;4.70;88.80